sensor_id;sensor_type;location;lat;lon;timestamp;P1;durP1;ratioP1;P2;durP2;ratioP2
52072;SDS011;38074;51.232;6.826;2022-12-29T00:07:13;0.63;;;0.10;;
52072;SDS011;38074;51.232;6.826;2022-12-29T00:14:28;0.60;;;0.20;;
52072;SDS011;38074;51.232;6.826;2022-12-29T00:22:02;0.10;;;0.10;;
52072;SDS011;38074;51.232;6.826;2022-12-29T00:29:36;0.10;;;0.10;;
52072;SDS011;38074;51.232;6.826;2022-12-29T00:37:11;0.30;;;0.17;;
52072;SDS011;38074;51.232;6.826;2022-12-29T00:44:26;0.20;;;0.10;;
52072;SDS011;38074;51.232;6.826;2022-12-29T00:51:42;0.10;;;0.07;;
52072;SDS011;38074;51.232;6.826;2022-12-29T00:59:01;0.30;;;0.10;;
52072;SDS011;38074;51.232;6.826;2022-12-29T01:06:21;0.13;;;0.10;;
52072;SDS011;38074;51.232;6.826;2022-12-29T01:13:38;0.20;;;0.07;;
52072;SDS011;38074;51.232;6.826;2022-12-29T01:21:03;0.10;;;0.10;;
52072;SDS011;38074;51.232;6.826;2022-12-29T01:28:20;0.08;;;0.08;;
52072;SDS011;38074;51.232;6.826;2022-12-29T01:35:36;0.05;;;0.00;;
52072;SDS011;38074;51.232;6.826;2022-12-29T01:42:52;0.10;;;0.10;;
52072;SDS011;38074;51.232;6.826;2022-12-29T01:50:27;0.27;;;0.10;;
52072;SDS011;38074;51.232;6.826;2022-12-29T01:57:46;0.20;;;0.10;;
52072;SDS011;38074;51.232;6.826;2022-12-29T02:05:08;0.20;;;0.03;;
52072;SDS011;38074;51.232;6.826;2022-12-29T02:12:45;0.20;;;0.00;;
52072;SDS011;38074;51.232;6.826;2022-12-29T02:27:51;0.25;;;0.10;;
52072;SDS011;38074;51.232;6.826;2022-12-29T02:35:29;0.10;;;0.03;;
52072;SDS011;38074;51.232;6.826;2022-12-29T02:42:59;0.10;;;0.10;;
52072;SDS011;38074;51.232;6.826;2022-12-29T02:50:35;0.20;;;0.00;;
52072;SDS011;38074;51.232;6.826;2022-12-29T02:58:15;0.00;;;0.00;;
52072;SDS011;38074;51.232;6.826;2022-12-29T03:05:50;0.20;;;0.10;;
52072;SDS011;38074;51.232;6.826;2022-12-29T03:13:21;0.00;;;0.00;;
52072;SDS011;38074;51.232;6.826;2022-12-29T03:21:12;0.20;;;0.00;;
52072;SDS011;38074;51.232;6.826;2022-12-29T03:28:58;0.00;;;0.00;;
52072;SDS011;38074;51.232;6.826;2022-12-29T03:36:16;0.10;;;0.08;;
52072;SDS011;38074;51.232;6.826;2022-12-29T03:43:45;0.10;;;0.00;;
52072;SDS011;38074;51.232;6.826;2022-12-29T03:51:01;0.00;;;0.00;;
52072;SDS011;38074;51.232;6.826;2022-12-29T03:58:16;0.00;;;0.00;;
52072;SDS011;38074;51.232;6.826;2022-12-29T04:05:32;0.00;;;0.00;;
52072;SDS011;38074;51.232;6.826;2022-12-29T04:12:47;0.03;;;0.00;;
52072;SDS011;38074;51.232;6.826;2022-12-29T04:20:03;0.17;;;0.00;;
52072;SDS011;38074;51.232;6.826;2022-12-29T04:27:49;0.10;;;0.00;;
52072;SDS011;38074;51.232;6.826;2022-12-29T04:35:04;0.00;;;0.00;;
52072;SDS011;38074;51.232;6.826;2022-12-29T04:42:20;0.00;;;0.00;;
52072;SDS011;38074;51.232;6.826;2022-12-29T04:49:36;0.00;;;0.00;;
52072;SDS011;38074;51.232;6.826;2022-12-29T04:56:51;0.10;;;0.10;;
52072;SDS011;38074;51.232;6.826;2022-12-29T05:04:07;0.00;;;0.00;;
52072;SDS011;38074;51.232;6.826;2022-12-29T05:11:22;0.20;;;0.10;;
52072;SDS011;38074;51.232;6.826;2022-12-29T05:18:39;0.22;;;0.00;;
52072;SDS011;38074;51.232;6.826;2022-12-29T05:25:54;0.10;;;0.00;;
52072;SDS011;38074;51.232;6.826;2022-12-29T05:33:10;0.00;;;0.00;;
52072;SDS011;38074;51.232;6.826;2022-12-29T05:40:26;0.20;;;0.00;;
52072;SDS011;38074;51.232;6.826;2022-12-29T05:47:42;0.20;;;0.00;;
52072;SDS011;38074;51.232;6.826;2022-12-29T05:54:57;0.27;;;0.07;;
52072;SDS011;38074;51.232;6.826;2022-12-29T06:02:12;0.00;;;0.00;;
52072;SDS011;38074;51.232;6.826;2022-12-29T06:09:28;0.00;;;0.00;;
52072;SDS011;38074;51.232;6.826;2022-12-29T06:16:43;0.00;;;0.00;;
52072;SDS011;38074;51.232;6.826;2022-12-29T06:23:59;0.00;;;0.00;;
52072;SDS011;38074;51.232;6.826;2022-12-29T06:31:14;0.10;;;0.00;;
52072;SDS011;38074;51.232;6.826;2022-12-29T06:38:30;0.00;;;0.00;;
52072;SDS011;38074;51.232;6.826;2022-12-29T06:45:46;0.10;;;0.00;;
52072;SDS011;38074;51.232;6.826;2022-12-29T06:53:01;0.40;;;0.03;;
52072;SDS011;38074;51.232;6.826;2022-12-29T07:00:17;0.00;;;0.00;;
52072;SDS011;38074;51.232;6.826;2022-12-29T07:07:33;0.00;;;0.00;;
52072;SDS011;38074;51.232;6.826;2022-12-29T07:14:48;0.00;;;0.00;;
52072;SDS011;38074;51.232;6.826;2022-12-29T07:22:04;0.03;;;0.00;;
52072;SDS011;38074;51.232;6.826;2022-12-29T07:29:19;0.00;;;0.00;;
52072;SDS011;38074;51.232;6.826;2022-12-29T07:36:35;0.50;;;0.10;;
52072;SDS011;38074;51.232;6.826;2022-12-29T07:43:50;0.00;;;0.00;;
52072;SDS011;38074;51.232;6.826;2022-12-29T07:51:06;0.13;;;0.00;;
52072;SDS011;38074;51.232;6.826;2022-12-29T07:58:21;0.33;;;0.10;;
52072;SDS011;38074;51.232;6.826;2022-12-29T08:05:37;1.87;;;0.10;;
52072;SDS011;38074;51.232;6.826;2022-12-29T08:12:52;2.23;;;0.33;;
52072;SDS011;38074;51.232;6.826;2022-12-29T08:20:08;10.23;;;1.07;;
52072;SDS011;38074;51.232;6.826;2022-12-29T08:27:24;2.97;;;0.65;;
52072;SDS011;38074;51.232;6.826;2022-12-29T08:34:41;6.07;;;0.90;;
52072;SDS011;38074;51.232;6.826;2022-12-29T08:41:56;5.47;;;0.70;;
52072;SDS011;38074;51.232;6.826;2022-12-29T08:49:12;6.90;;;0.90;;
52072;SDS011;38074;51.232;6.826;2022-12-29T08:56:27;5.57;;;0.60;;
52072;SDS011;38074;51.232;6.826;2022-12-29T09:03:43;11.02;;;1.33;;
52072;SDS011;38074;51.232;6.826;2022-12-29T09:11:09;6.63;;;0.80;;
52072;SDS011;38074;51.232;6.826;2022-12-29T09:18:26;6.77;;;1.07;;
52072;SDS011;38074;51.232;6.826;2022-12-29T09:25:41;8.82;;;1.10;;
52072;SDS011;38074;51.232;6.826;2022-12-29T09:32:58;5.57;;;0.90;;
52072;SDS011;38074;51.232;6.826;2022-12-29T09:40:21;6.93;;;1.00;;
52072;SDS011;38074;51.232;6.826;2022-12-29T09:47:45;6.60;;;1.02;;
52072;SDS011;38074;51.232;6.826;2022-12-29T09:55:21;6.77;;;0.90;;
52072;SDS011;38074;51.232;6.826;2022-12-29T10:02:46;3.95;;;0.55;;
52072;SDS011;38074;51.232;6.826;2022-12-29T10:17:54;1.55;;;0.47;;
52072;SDS011;38074;51.232;6.826;2022-12-29T10:25:18;1.30;;;0.30;;
52072;SDS011;38074;51.232;6.826;2022-12-29T10:32:38;3.33;;;0.30;;
52072;SDS011;38074;51.232;6.826;2022-12-29T10:39:55;1.08;;;0.30;;
52072;SDS011;38074;51.232;6.826;2022-12-29T10:47:33;4.57;;;0.40;;
52072;SDS011;38074;51.232;6.826;2022-12-29T11:25:33;1.60;;;0.40;;
52072;SDS011;38074;51.232;6.826;2022-12-29T11:32:52;1.15;;;0.20;;
52072;SDS011;38074;51.232;6.826;2022-12-29T11:40:18;2.47;;;0.30;;
52072;SDS011;38074;51.232;6.826;2022-12-29T11:47:35;4.17;;;0.53;;
52072;SDS011;38074;51.232;6.826;2022-12-29T11:54:52;11.02;;;5.22;;
52072;SDS011;38074;51.232;6.826;2022-12-29T12:02:18;26.80;;;12.40;;
52072;SDS011;38074;51.232;6.826;2022-12-29T12:09:51;51.72;;;23.75;;
52072;SDS011;38074;51.232;6.826;2022-12-29T12:17:16;62.63;;;32.28;;
52072;SDS011;38074;51.232;6.826;2022-12-29T12:24:50;62.75;;;34.10;;
52072;SDS011;38074;51.232;6.826;2022-12-29T12:32:15;70.75;;;36.15;;
52072;SDS011;38074;51.232;6.826;2022-12-29T12:54:58;68.38;;;34.63;;
52072;SDS011;38074;51.232;6.826;2022-12-29T13:02:34;68.40;;;32.78;;
52072;SDS011;38074;51.232;6.826;2022-12-29T13:10:01;55.20;;;28.05;;
52072;SDS011;38074;51.232;6.826;2022-12-29T13:17:30;57.85;;;27.27;;
52072;SDS011;38074;51.232;6.826;2022-12-29T13:25:08;48.47;;;22.70;;
52072;SDS011;38074;51.232;6.826;2022-12-29T13:40:28;43.10;;;20.70;;
52072;SDS011;38074;51.232;6.826;2022-12-29T13:48:11;46.20;;;20.20;;
52072;SDS011;38074;51.232;6.826;2022-12-29T13:55:41;38.47;;;17.85;;
52072;SDS011;38074;51.232;6.826;2022-12-29T14:03:19;34.40;;;15.70;;
52072;SDS011;38074;51.232;6.826;2022-12-29T14:10:47;30.83;;;14.07;;
52072;SDS011;38074;51.232;6.826;2022-12-29T14:18:10;32.28;;;13.50;;
52072;SDS011;38074;51.232;6.826;2022-12-29T14:25:52;27.15;;;12.85;;
52072;SDS011;38074;51.232;6.826;2022-12-29T14:33:13;27.10;;;12.52;;
52072;SDS011;38074;51.232;6.826;2022-12-29T14:40:29;24.77;;;10.80;;
52072;SDS011;38074;51.232;6.826;2022-12-29T14:47:46;25.90;;;10.23;;
52072;SDS011;38074;51.232;6.826;2022-12-29T15:02:32;16.60;;;8.88;;
52072;SDS011;38074;51.232;6.826;2022-12-29T15:09:56;23.70;;;9.25;;
52072;SDS011;38074;51.232;6.826;2022-12-29T15:17:25;18.27;;;9.18;;
52072;SDS011;38074;51.232;6.826;2022-12-29T15:24:46;17.98;;;8.52;;
52072;SDS011;38074;51.232;6.826;2022-12-29T15:32:10;20.38;;;9.07;;
52072;SDS011;38074;51.232;6.826;2022-12-29T15:39:30;24.88;;;8.85;;
52072;SDS011;38074;51.232;6.826;2022-12-29T15:46:46;15.43;;;6.60;;
52072;SDS011;38074;51.232;6.826;2022-12-29T15:54:02;19.60;;;7.47;;
52072;SDS011;38074;51.232;6.826;2022-12-29T16:01:28;19.30;;;6.70;;
52072;SDS011;38074;51.232;6.826;2022-12-29T16:08:46;23.92;;;7.65;;
52072;SDS011;38074;51.232;6.826;2022-12-29T16:16:31;22.10;;;6.50;;
52072;SDS011;38074;51.232;6.826;2022-12-29T16:23:52;16.92;;;5.78;;
52072;SDS011;38074;51.232;6.826;2022-12-29T16:31:16;16.55;;;5.90;;
52072;SDS011;38074;51.232;6.826;2022-12-29T16:38:35;16.00;;;6.05;;
52072;SDS011;38074;51.232;6.826;2022-12-29T16:53:15;13.35;;;5.25;;
52072;SDS011;38074;51.232;6.826;2022-12-29T17:00:36;10.25;;;4.70;;
52072;SDS011;38074;51.232;6.826;2022-12-29T17:07:52;15.05;;;5.43;;
52072;SDS011;38074;51.232;6.826;2022-12-29T17:15:14;14.27;;;5.33;;
52072;SDS011;38074;51.232;6.826;2022-12-29T17:22:39;11.18;;;4.78;;
52072;SDS011;38074;51.232;6.826;2022-12-29T17:29:56;11.53;;;4.73;;
52072;SDS011;38074;51.232;6.826;2022-12-29T17:44:39;10.13;;;4.03;;
52072;SDS011;38074;51.232;6.826;2022-12-29T17:51:55;10.77;;;4.23;;
52072;SDS011;38074;51.232;6.826;2022-12-29T17:59:11;7.03;;;3.55;;
52072;SDS011;38074;51.232;6.826;2022-12-29T18:06:28;8.07;;;3.08;;
52072;SDS011;38074;51.232;6.826;2022-12-29T18:13:43;6.40;;;3.20;;
52072;SDS011;38074;51.232;6.826;2022-12-29T18:20:59;7.43;;;2.63;;
52072;SDS011;38074;51.232;6.826;2022-12-29T18:28:14;5.70;;;2.90;;
52072;SDS011;38074;51.232;6.826;2022-12-29T18:35:35;5.80;;;2.47;;
52072;SDS011;38074;51.232;6.826;2022-12-29T18:42:54;5.60;;;2.17;;
52072;SDS011;38074;51.232;6.826;2022-12-29T18:50:09;5.13;;;1.87;;
52072;SDS011;38074;51.232;6.826;2022-12-29T18:57:25;6.97;;;2.50;;
52072;SDS011;38074;51.232;6.826;2022-12-29T19:04:44;4.32;;;1.92;;
52072;SDS011;38074;51.232;6.826;2022-12-29T19:12:00;4.03;;;2.03;;
52072;SDS011;38074;51.232;6.826;2022-12-29T19:19:15;4.90;;;2.13;;
52072;SDS011;38074;51.232;6.826;2022-12-29T19:26:32;4.05;;;1.88;;
52072;SDS011;38074;51.232;6.826;2022-12-29T19:33:50;4.25;;;2.10;;
52072;SDS011;38074;51.232;6.826;2022-12-29T19:41:07;3.60;;;1.83;;
52072;SDS011;38074;51.232;6.826;2022-12-29T19:48:22;2.60;;;1.10;;
52072;SDS011;38074;51.232;6.826;2022-12-29T19:55:41;3.03;;;1.40;;
52072;SDS011;38074;51.232;6.826;2022-12-29T20:03:00;4.85;;;1.58;;
52072;SDS011;38074;51.232;6.826;2022-12-29T20:10:16;4.47;;;1.33;;
52072;SDS011;38074;51.232;6.826;2022-12-29T20:17:31;3.22;;;1.13;;
52072;SDS011;38074;51.232;6.826;2022-12-29T20:24:47;4.80;;;1.87;;
52072;SDS011;38074;51.232;6.826;2022-12-29T20:32:04;3.92;;;1.30;;
52072;SDS011;38074;51.232;6.826;2022-12-29T20:39:21;4.72;;;1.52;;
52072;SDS011;38074;51.232;6.826;2022-12-29T20:46:37;9.37;;;1.33;;
52072;SDS011;38074;51.232;6.826;2022-12-29T20:53:53;7.13;;;1.20;;
52072;SDS011;38074;51.232;6.826;2022-12-29T21:01:10;6.83;;;1.70;;
52072;SDS011;38074;51.232;6.826;2022-12-29T21:08:28;6.50;;;1.30;;
52072;SDS011;38074;51.232;6.826;2022-12-29T21:15:44;6.68;;;1.38;;
52072;SDS011;38074;51.232;6.826;2022-12-29T21:23:01;5.68;;;1.00;;
52072;SDS011;38074;51.232;6.826;2022-12-29T21:30:17;6.90;;;1.17;;
52072;SDS011;38074;51.232;6.826;2022-12-29T21:37:33;3.53;;;1.17;;
52072;SDS011;38074;51.232;6.826;2022-12-29T21:44:49;4.68;;;1.45;;
52072;SDS011;38074;51.232;6.826;2022-12-29T21:52:23;5.93;;;1.02;;
52072;SDS011;38074;51.232;6.826;2022-12-29T21:59:38;2.90;;;1.00;;
52072;SDS011;38074;51.232;6.826;2022-12-29T22:07:12;3.95;;;0.90;;
52072;SDS011;38074;51.232;6.826;2022-12-29T22:14:47;4.43;;;0.75;;
52072;SDS011;38074;51.232;6.826;2022-12-29T22:22:02;3.58;;;0.73;;
52072;SDS011;38074;51.232;6.826;2022-12-29T22:29:18;3.70;;;1.00;;
52072;SDS011;38074;51.232;6.826;2022-12-29T22:36:33;3.37;;;1.20;;
52072;SDS011;38074;51.232;6.826;2022-12-29T22:43:49;4.70;;;1.00;;
52072;SDS011;38074;51.232;6.826;2022-12-29T22:51:04;4.18;;;1.10;;
52072;SDS011;38074;51.232;6.826;2022-12-29T22:58:20;3.75;;;0.77;;
52072;SDS011;38074;51.232;6.826;2022-12-29T23:05:36;2.80;;;0.83;;
52072;SDS011;38074;51.232;6.826;2022-12-29T23:12:51;2.87;;;1.07;;
52072;SDS011;38074;51.232;6.826;2022-12-29T23:20:07;2.17;;;0.70;;
52072;SDS011;38074;51.232;6.826;2022-12-29T23:27:23;3.35;;;0.80;;
52072;SDS011;38074;51.232;6.826;2022-12-29T23:34:38;2.43;;;0.60;;
52072;SDS011;38074;51.232;6.826;2022-12-29T23:41:54;3.70;;;0.70;;
52072;SDS011;38074;51.232;6.826;2022-12-29T23:49:09;2.40;;;0.53;;
52072;SDS011;38074;51.232;6.826;2022-12-29T23:56:25;2.50;;;0.75;;
